createdAt,value
2023-11-16T00:02:49.791Z,85.10
2023-11-16T00:05:52.036Z,84.80
2023-11-16T00:08:54.804Z,85.20
2023-11-16T00:11:56.826Z,84.10
2023-11-16T00:14:58.945Z,83.60
2023-11-16T00:18:01.306Z,84.30
2023-11-16T00:21:03.442Z,84.10
2023-11-16T00:24:05.865Z,83.70
2023-11-16T00:27:07.979Z,83.70
2023-11-16T00:30:10.681Z,84.60
2023-11-16T00:33:12.750Z,85.00
2023-11-16T00:36:14.988Z,84.80
2023-11-16T00:39:17.038Z,84.10
2023-11-16T00:42:19.135Z,83.90
2023-11-16T00:45:21.384Z,83.40
2023-11-16T00:48:23.563Z,83.60
2023-11-16T00:51:28.067Z,83.30
2023-11-16T00:54:30.213Z,82.70
2023-11-16T00:57:32.386Z,83.30
2023-11-16T01:00:34.570Z,83.40
2023-11-16T01:03:36.733Z,83.80
2023-11-16T01:06:39.977Z,84.30
2023-11-16T01:09:42.422Z,84.70
2023-11-16T01:12:44.564Z,84.90
2023-11-16T01:15:46.861Z,84.50
2023-11-16T01:18:48.987Z,84.40
2023-11-16T01:21:51.251Z,84.70
2023-11-16T01:24:53.433Z,84.50
2023-11-16T01:27:55.635Z,84.50
2023-11-16T01:30:57.740Z,84.90
2023-11-16T01:34:01.316Z,85.00
2023-11-16T01:37:03.323Z,85.00
2023-11-16T01:40:05.932Z,85.60
2023-11-16T01:43:08.556Z,85.40
2023-11-16T01:46:10.693Z,86.40
2023-11-16T01:49:12.838Z,86.20
2023-11-16T01:52:15.118Z,86.30
2023-11-16T01:55:17.158Z,86.30
2023-11-16T01:58:19.410Z,86.30
2023-11-16T02:01:23.519Z,86.40
2023-11-16T02:04:25.718Z,85.80
2023-11-16T02:07:27.846Z,86.60
2023-11-16T02:10:30.084Z,86.00
2023-11-16T02:13:32.165Z,86.60
2023-11-16T02:16:36.669Z,86.20
2023-11-16T02:19:40.177Z,86.20
2023-11-16T02:22:43.392Z,86.30
2023-11-16T02:25:47.003Z,86.60
2023-11-16T02:28:49.035Z,86.70
2023-11-16T02:31:51.216Z,86.60
2023-11-16T02:34:56.323Z,86.70
2023-11-16T02:37:59.263Z,87.10
2023-11-16T02:41:03.831Z,86.90
2023-11-16T02:44:05.978Z,86.90
2023-11-16T02:47:08.073Z,86.90
2023-11-16T02:50:10.309Z,86.80
2023-11-16T02:53:12.402Z,87.10
2023-11-16T02:56:14.691Z,87.00
2023-11-16T02:59:17.339Z,86.60
2023-11-16T03:02:19.400Z,86.50
2023-11-16T03:05:24.207Z,86.60
2023-11-16T03:08:26.549Z,86.00
2023-11-16T03:11:28.628Z,86.20
2023-11-16T03:14:30.697Z,86.10
2023-11-16T03:17:38.370Z,86.20
2023-11-16T03:20:40.407Z,86.20
2023-11-16T03:23:42.416Z,85.90
2023-11-16T03:26:45.294Z,85.90
2023-11-16T03:29:52.544Z,86.00
2023-11-16T03:39:54.183Z,86.10
2023-11-16T03:42:57.324Z,86.20
2023-11-16T03:45:59.585Z,86.20
2023-11-16T03:49:01.794Z,86.20
2023-11-16T03:52:04.054Z,86.30
2023-11-16T03:55:06.520Z,86.10
2023-11-16T03:58:08.723Z,85.80
2023-11-16T04:01:10.935Z,85.90
2023-11-16T04:04:13.155Z,85.80
2023-11-16T04:07:16.172Z,86.00
2023-11-16T04:10:18.384Z,86.00
2023-11-16T04:13:20.470Z,86.00
2023-11-16T04:16:23.202Z,86.00
2023-11-16T04:19:25.942Z,86.30
2023-11-16T04:22:28.254Z,86.30
2023-11-16T04:25:30.546Z,86.20
2023-11-16T04:28:33.280Z,86.00
2023-11-16T04:31:35.970Z,86.00
2023-11-16T04:34:38.054Z,85.80
2023-11-16T04:37:40.373Z,86.10
2023-11-16T04:40:42.528Z,85.70
2023-11-16T04:43:44.796Z,86.20
2023-11-16T04:46:47.109Z,86.40
2023-11-16T04:49:49.393Z,86.50
2023-11-16T04:52:54.001Z,86.50
2023-11-16T04:55:56.760Z,86.60
2023-11-16T04:58:59.258Z,86.80
2023-11-16T05:02:01.397Z,86.70
2023-11-16T05:05:03.731Z,87.00
2023-11-16T05:08:06.195Z,87.10
2023-11-16T05:11:08.984Z,87.10
2023-11-16T05:14:11.250Z,86.80
2023-11-16T05:17:13.453Z,87.30
2023-11-16T05:20:15.872Z,87.30
2023-11-16T05:23:18.159Z,87.10
2023-11-16T05:26:20.402Z,87.00
2023-11-16T05:29:22.482Z,86.90
2023-11-16T05:32:24.620Z,86.90
2023-11-16T05:35:27.915Z,87.00
2023-11-16T05:38:30.054Z,86.90
2023-11-16T05:41:32.249Z,86.80
2023-11-16T05:44:34.469Z,87.10
2023-11-16T05:47:36.675Z,87.10
2023-11-16T05:50:39.261Z,87.20
2023-11-16T05:53:41.369Z,87.10
2023-11-16T05:56:47.019Z,87.40
2023-11-16T05:59:49.182Z,87.10
2023-11-16T06:02:53.891Z,87.00
2023-11-16T06:05:57.471Z,87.20
2023-11-16T06:08:59.575Z,86.80
2023-11-16T06:12:01.598Z,86.70
2023-11-16T06:15:03.774Z,86.60
2023-11-16T06:18:05.816Z,86.60
2023-11-16T06:21:08.661Z,86.50
2023-11-16T06:24:10.885Z,86.80
2023-11-16T06:27:13.023Z,87.00
2023-11-16T06:30:16.123Z,86.80
2023-11-16T06:33:18.805Z,86.90
2023-11-16T06:36:24.002Z,87.00
2023-11-16T06:39:26.276Z,87.00
2023-11-16T06:42:28.381Z,87.30
2023-11-16T06:45:30.918Z,87.90
2023-11-16T06:48:33.036Z,88.20
2023-11-16T06:51:35.719Z,88.70
2023-11-16T06:54:38.556Z,89.10
2023-11-16T06:57:40.875Z,89.00
2023-11-16T07:00:43.164Z,88.80
2023-11-16T07:03:45.422Z,88.40
2023-11-16T07:06:47.771Z,88.10
2023-11-16T07:09:50.512Z,88.20
2023-11-16T07:12:53.178Z,88.10
2023-11-16T07:15:55.342Z,88.50
2023-11-16T07:18:57.468Z,88.10
2023-11-16T07:21:59.676Z,87.90
2023-11-16T07:25:01.761Z,88.00
2023-11-16T07:28:03.983Z,87.90
2023-11-16T07:31:06.497Z,88.20
2023-11-16T07:34:08.535Z,88.80
2023-11-16T07:37:10.992Z,88.20
2023-11-16T07:40:14.455Z,88.00
2023-11-16T07:43:16.677Z,88.00
2023-11-16T07:46:21.240Z,87.60
2023-11-16T07:49:23.386Z,87.90
2023-11-16T07:52:25.502Z,88.00
2023-11-16T07:55:27.646Z,88.10
2023-11-16T07:58:29.621Z,87.90
2023-11-16T08:01:31.673Z,87.80
2023-11-16T08:04:33.789Z,87.70
2023-11-16T08:07:38.319Z,87.90
2023-11-16T08:10:44.123Z,88.20
2023-11-16T08:13:47.184Z,88.10
2023-11-16T08:16:49.436Z,87.50
2023-11-16T08:19:53.335Z,87.50
2023-11-16T08:22:59.620Z,87.20
2023-11-16T08:26:01.629Z,87.10
2023-11-16T08:29:03.648Z,87.30
2023-11-16T08:32:06.378Z,87.20
2023-11-16T08:35:08.421Z,87.10
2023-11-16T08:38:10.401Z,86.70
2023-11-16T08:41:14.831Z,85.90
2023-11-16T08:44:19.100Z,85.80
2023-11-16T08:47:21.528Z,85.40
2023-11-16T08:50:26.508Z,86.10
2023-11-16T08:53:28.735Z,85.40
2023-11-16T08:56:39.178Z,85.60
2023-11-16T08:59:44.220Z,85.80
2023-11-16T09:02:46.218Z,85.30
2023-11-16T09:05:50.490Z,85.50
2023-11-16T09:08:52.730Z,85.30
2023-11-16T09:11:54.786Z,85.70
2023-11-16T09:14:56.770Z,85.80
2023-11-16T09:17:59.147Z,86.70
2023-11-16T09:21:01.172Z,86.30
2023-11-16T09:24:03.235Z,85.80
2023-11-16T09:27:06.445Z,86.60
2023-11-16T09:30:10.184Z,85.60
2023-11-16T09:33:12.329Z,85.70
2023-11-16T09:36:14.450Z,85.40
2023-11-16T09:39:16.419Z,85.30
2023-11-16T09:42:18.585Z,85.60
2023-11-16T09:45:21.342Z,85.20
2023-11-16T09:48:24.067Z,85.90
2023-11-16T09:51:27.824Z,86.10
2023-11-16T09:54:30.088Z,85.60
2023-11-16T09:57:32.562Z,86.20
2023-11-16T10:00:34.831Z,85.90
2023-11-16T10:03:37.194Z,85.70
2023-11-16T10:06:39.700Z,86.30
2023-11-16T10:09:46.114Z,86.10
2023-11-16T10:12:50.966Z,86.60
2023-11-16T10:15:54.171Z,86.60
2023-11-16T10:19:05.707Z,86.40
2023-11-16T10:22:07.709Z,86.70
2023-11-16T10:25:10.334Z,86.50
2023-11-16T10:28:16.049Z,87.00
2023-11-16T10:31:20.897Z,87.00
2023-11-16T10:34:24.621Z,87.00
2023-11-16T10:37:28.689Z,86.90
2023-11-16T10:40:30.788Z,87.20
2023-11-16T10:43:32.964Z,87.30
2023-11-16T10:46:35.002Z,87.10
2023-11-16T10:49:37.010Z,87.40
2023-11-16T10:52:39.559Z,87.40
2023-11-16T10:55:45.319Z,87.40
2023-11-16T10:58:48.577Z,87.00
2023-11-16T11:01:51.023Z,87.40
2023-11-16T11:04:53.885Z,87.50
2023-11-16T11:07:56.948Z,87.50
2023-11-16T11:10:59.714Z,87.60
2023-11-16T11:14:02.127Z,88.10
2023-11-16T11:17:06.030Z,87.70
2023-11-16T11:20:08.693Z,88.10
2023-11-16T11:23:12.008Z,88.40
2023-11-16T11:26:14.179Z,87.60
2023-11-16T11:29:17.485Z,87.40
2023-11-16T11:32:24.765Z,87.10
2023-11-16T11:35:26.979Z,87.50
2023-11-16T11:38:29.180Z,86.80
2023-11-16T11:41:31.317Z,87.10
2023-11-16T11:44:33.418Z,86.90
2023-11-16T11:47:35.573Z,87.30
2023-11-16T12:03:21.850Z,86.30
2023-11-16T12:06:24.158Z,87.10
2023-11-16T12:09:26.244Z,87.30
2023-11-16T12:12:28.927Z,87.30
2023-11-16T12:15:30.997Z,87.30
2023-11-16T12:18:33.650Z,87.50
2023-11-16T12:21:38.950Z,87.30
2023-11-16T12:24:41.029Z,87.80
2023-11-16T12:27:43.195Z,87.60
2023-11-16T12:30:47.802Z,87.40
2023-11-16T12:33:50.556Z,87.50
2023-11-16T12:36:56.613Z,87.60
2023-11-16T12:39:58.652Z,87.60
2023-11-16T12:43:00.784Z,87.60
2023-11-16T12:46:03.219Z,88.00
2023-11-16T12:49:06.222Z,88.50
2023-11-16T12:52:08.532Z,88.90
2023-11-16T12:55:10.563Z,88.90
2023-11-16T12:58:12.780Z,89.20
2023-11-16T13:01:14.859Z,89.10
2023-11-16T13:04:16.942Z,88.90
2023-11-16T13:07:18.971Z,88.70
2023-11-16T13:10:21.057Z,88.90
2023-11-16T13:13:23.334Z,89.10
2023-11-16T13:16:25.501Z,89.00
2023-11-16T13:19:27.645Z,89.00
2023-11-16T13:22:29.809Z,89.10
2023-11-16T13:25:31.874Z,89.00
2023-11-16T13:28:34.009Z,89.30
2023-11-16T13:31:36.129Z,89.30
2023-11-16T13:34:38.207Z,89.40
2023-11-16T13:37:40.182Z,89.50
2023-11-16T13:40:43.097Z,89.40
2023-11-16T13:43:45.436Z,89.30
2023-11-16T13:46:47.974Z,89.20
2023-11-16T13:49:50.279Z,89.00
2023-11-16T13:52:52.654Z,89.00
2023-11-16T13:55:54.686Z,89.20
2023-11-16T13:58:58.659Z,89.20
2023-11-16T14:02:01.782Z,89.30
2023-11-16T14:05:09.031Z,89.40
2023-11-16T14:08:12.305Z,89.30
2023-11-16T14:11:14.652Z,89.30
2023-11-16T14:14:17.014Z,89.20
2023-11-16T14:17:21.540Z,89.20
2023-11-16T14:20:23.954Z,89.30
2023-11-16T14:23:29.537Z,89.20
2023-11-16T14:26:33.581Z,89.20
2023-11-16T14:29:36.622Z,89.50
2023-11-16T14:32:38.643Z,89.50
2023-11-16T14:35:40.643Z,89.40
2023-11-16T14:38:42.626Z,89.30
2023-11-16T14:41:44.737Z,89.60
2023-11-16T14:44:46.800Z,89.60
2023-11-16T14:47:49.071Z,89.70
2023-11-16T14:50:51.237Z,89.60
2023-11-16T14:53:59.453Z,89.50
2023-11-16T14:57:02.083Z,89.40
2023-11-16T15:00:04.813Z,89.70
2023-11-16T15:03:07.460Z,89.40
2023-11-16T15:06:09.474Z,89.20
2023-11-16T15:09:13.919Z,89.30
2023-11-16T15:12:16.177Z,89.20
2023-11-16T15:15:18.197Z,89.20
2023-11-16T15:18:20.223Z,89.20
2023-11-16T15:21:22.211Z,89.20
2023-11-16T15:24:24.191Z,89.30
2023-11-16T15:27:26.572Z,89.50
2023-11-16T15:30:28.744Z,89.40
2023-11-16T15:33:31.258Z,89.20
2023-11-16T15:36:33.391Z,89.30
2023-11-16T15:39:35.774Z,89.30
2023-11-16T15:42:41.052Z,89.40
2023-11-16T15:45:43.356Z,89.40
2023-11-16T15:48:48.270Z,89.60
2023-11-16T15:51:50.543Z,89.60
2023-11-16T15:54:52.635Z,89.40
2023-11-16T15:57:54.840Z,89.40
2023-11-16T16:00:57.054Z,89.40
2023-11-16T16:03:59.378Z,89.40
2023-11-16T16:07:01.619Z,89.30
2023-11-16T16:10:04.402Z,89.40
2023-11-16T16:13:06.503Z,89.30
2023-11-16T16:16:09.145Z,89.20
2023-11-16T16:19:11.280Z,89.20
2023-11-16T16:22:13.434Z,88.40
2023-11-16T16:25:15.892Z,88.40
2023-11-16T16:28:18.203Z,88.60
2023-11-16T16:31:21.328Z,88.20
2023-11-16T16:34:23.524Z,88.40
2023-11-16T16:37:25.568Z,88.10
2023-11-16T16:40:27.728Z,88.30
2023-11-16T16:43:29.804Z,88.40
2023-11-16T16:46:33.006Z,88.30
2023-11-16T16:49:38.078Z,88.40
2023-11-16T16:52:40.266Z,88.10
2023-11-16T16:55:42.464Z,88.30
2023-11-16T16:58:44.565Z,88.10
2023-11-16T17:01:46.926Z,88.40
2023-11-16T17:04:49.119Z,88.40
2023-11-16T17:07:51.356Z,88.10
2023-11-16T17:10:53.396Z,88.20
2023-11-16T17:13:55.400Z,88.10
2023-11-16T17:16:57.438Z,88.20
2023-11-16T17:20:02.377Z,88.20
2023-11-16T17:23:04.611Z,88.40
2023-11-16T17:26:07.403Z,88.60
2023-11-16T17:29:09.461Z,87.70
2023-11-16T17:32:11.553Z,87.60
2023-11-16T17:35:14.234Z,88.10
2023-11-16T17:38:16.343Z,88.10
2023-11-16T17:41:18.329Z,88.10
2023-11-16T17:44:20.297Z,88.30
2023-11-16T17:47:22.576Z,88.40
2023-11-16T17:50:24.736Z,88.50
2023-11-16T17:53:27.496Z,88.60
2023-11-16T17:56:30.188Z,89.00
2023-11-16T17:59:33.286Z,89.10
2023-11-16T18:02:36.039Z,89.00
2023-11-16T18:05:39.008Z,89.20
2023-11-16T18:08:41.647Z,89.30
2023-11-16T18:11:44.000Z,89.20
2023-11-16T18:14:47.046Z,89.30
2023-11-16T18:17:51.842Z,89.30
2023-11-16T18:20:54.140Z,89.40
2023-11-16T18:23:56.244Z,89.50
2023-11-16T18:26:59.125Z,89.50
2023-11-16T18:30:01.500Z,89.50
2023-11-16T18:33:03.981Z,89.20
2023-11-16T18:36:08.283Z,89.40
2023-11-16T18:39:10.393Z,89.40
2023-11-16T18:42:15.886Z,89.60
2023-11-16T18:45:19.087Z,89.60
2023-11-16T18:48:21.319Z,89.30
2023-11-16T18:51:24.007Z,89.40
2023-11-16T18:54:26.418Z,89.30
2023-11-16T18:57:31.727Z,89.40
2023-11-16T19:00:37.410Z,89.40
2023-11-16T19:03:40.030Z,89.30
2023-11-16T19:06:42.450Z,89.40
2023-11-16T19:09:50.483Z,89.00
2023-11-16T19:12:53.173Z,89.10
2023-11-16T19:15:55.475Z,89.30
2023-11-16T19:18:57.742Z,89.40
2023-11-16T19:22:07.042Z,89.40
2023-11-16T19:25:09.458Z,89.30
2023-11-16T19:28:11.772Z,89.40
2023-11-16T19:31:14.294Z,89.30
2023-11-16T19:34:22.260Z,89.10
2023-11-16T19:37:24.745Z,89.40
2023-11-16T19:40:34.398Z,89.20
2023-11-16T19:43:44.319Z,89.30
2023-11-16T19:46:50.220Z,89.00
2023-11-16T19:49:57.007Z,89.10
2023-11-16T19:52:59.115Z,89.40
2023-11-16T19:56:01.253Z,89.10
2023-11-16T19:59:04.006Z,89.40
2023-11-16T20:02:06.723Z,89.50
2023-11-16T20:05:11.603Z,89.50
2023-11-16T20:08:29.063Z,89.30
2023-11-16T20:11:31.390Z,89.00
2023-11-16T20:14:35.884Z,89.20
2023-11-16T20:17:40.992Z,89.30
2023-11-16T20:20:51.784Z,89.40
2023-11-16T20:23:57.767Z,89.50
2023-11-16T20:27:00.007Z,89.30
2023-11-16T20:30:02.728Z,89.40
2023-11-16T20:33:07.530Z,89.30
2023-11-16T20:36:13.032Z,89.30
2023-11-16T20:39:16.216Z,89.50
2023-11-16T20:42:18.497Z,89.40
2023-11-16T20:45:32.890Z,89.60
2023-11-16T20:48:36.231Z,89.30
2023-11-16T20:51:39.466Z,89.30
2023-11-16T20:54:43.598Z,89.20
2023-11-16T20:57:46.172Z,89.20
2023-11-16T21:00:49.039Z,88.90
2023-11-16T21:03:51.343Z,89.10
2023-11-16T21:06:53.502Z,89.20
2023-11-16T21:09:55.547Z,89.30
2023-11-16T21:12:57.617Z,88.70
2023-11-16T21:15:59.866Z,89.00
2023-11-16T21:19:02.162Z,88.40
2023-11-16T21:22:04.653Z,88.70
2023-11-16T21:25:07.531Z,88.70
2023-11-16T21:28:11.159Z,88.90
2023-11-16T21:31:13.575Z,88.90
2023-11-16T21:34:15.955Z,88.80
2023-11-16T21:37:18.029Z,88.70
2023-11-16T21:40:20.197Z,89.00
2023-11-16T21:43:22.280Z,88.80
2023-11-16T21:46:24.425Z,89.00
2023-11-16T21:49:28.003Z,88.70
2023-11-16T21:52:30.021Z,88.40
2023-11-16T21:55:32.138Z,88.60
2023-11-16T21:58:36.463Z,88.60
2023-11-16T22:01:39.498Z,88.50
2023-11-16T22:04:41.555Z,88.40
2023-11-16T22:07:47.207Z,88.70
2023-11-16T22:10:49.419Z,88.70
2023-11-16T22:13:51.739Z,89.00
2023-11-16T22:16:53.916Z,88.60
2023-11-16T22:19:55.965Z,89.00
2023-11-16T22:22:57.990Z,88.60
2023-11-16T22:26:00.063Z,88.80
2023-11-16T22:29:02.315Z,89.00
2023-11-16T22:32:04.703Z,89.00
2023-11-16T22:35:07.840Z,88.80
2023-11-16T22:38:09.877Z,88.80
2023-11-16T22:41:11.895Z,88.80
2023-11-16T22:44:14.024Z,88.70
2023-11-16T22:47:16.103Z,88.60
2023-11-16T22:50:20.422Z,89.00
2023-11-16T22:53:22.705Z,89.00
2023-11-16T22:56:24.770Z,88.70
2023-11-16T22:59:26.830Z,88.80
2023-11-16T23:02:29.118Z,89.00
2023-11-16T23:05:31.350Z,89.00
2023-11-16T23:08:33.341Z,89.00
2023-11-16T23:11:35.510Z,89.00
2023-11-16T23:14:37.977Z,89.00
2023-11-16T23:17:40.033Z,88.90
2023-11-16T23:20:42.886Z,88.80
2023-11-16T23:23:45.065Z,88.80
2023-11-16T23:26:49.300Z,88.80
2023-11-16T23:29:51.854Z,88.80
2023-11-16T23:32:58.048Z,89.00
2023-11-16T23:36:00.112Z,89.00
2023-11-16T23:39:02.310Z,88.80
2023-11-16T23:42:04.678Z,88.80
2023-11-16T23:45:08.209Z,88.80
2023-11-16T23:48:10.217Z,88.90
2023-11-16T23:51:19.142Z,88.70
2023-11-16T23:54:23.486Z,89.00
2023-11-16T23:57:25.522Z,88.80
